Time;durP1;ratioP1;P1;durP2;ratioP2;P2;SDS_P1;SDS_P2;PMS_P1;PMS_P2;Temp;Humidity;BMP_temperature;BMP_pressure;BME280_temperature;BME280_humidity;BME280_pressure;Samples;Min_cycle;Max_cycle;Signal;HPM_P1;HPM_P2
2024/03/13 04:17:51;;;;;;;10.52;6.68;;;10.60;90.80;;;;;;5094890;22;20154;-79
2024/03/13 04:20:20;;;;;;;12.52;7.03;;;10.60;90.70;;;;;;5093949;28;20365;-80
2024/03/13 04:22:46;;;;;;;12.70;6.22;;;10.60;90.60;;;;;;5094226;28;20039;-79
2024/03/13 04:25:13;;;;;;;9.60;6.68;;;10.60;90.70;;;;;;5093768;28;20043;-79
2024/03/13 04:27:39;;;;;;;11.45;6.88;;;10.60;90.70;;;;;;5098144;28;20020;-79
2024/03/13 04:30:05;;;;;;;10.15;6.20;;;10.60;90.70;;;;;;5100684;28;20096;-80
2024/03/13 04:32:31;;;;;;;11.30;6.30;;;10.60;90.90;;;;;;5094835;28;20504;-78
2024/03/13 04:34:59;;;;;;;11.90;6.80;;;10.50;90.70;;;;;;5093903;28;20044;-78
2024/03/13 04:37:25;;;;;;;12.68;7.10;;;10.50;90.90;;;;;;5093274;28;20051;-80
2024/03/13 04:39:50;;;;;;;12.65;7.25;;;10.40;90.80;;;;;;5094003;28;20479;-80
2024/03/13 04:42:17;;;;;;;12.98;7.20;;;10.40;90.80;;;;;;5093804;28;20031;-79
2024/03/13 04:44:44;;;;;;;11.02;7.00;;;10.40;90.90;;;;;;5093668;28;20036;-79
2024/03/13 04:47:10;;;;;;;13.57;6.93;;;10.40;90.80;;;;;;5081517;28;20041;-79
2024/03/13 04:49:37;;;;;;;13.13;7.03;;;10.30;90.90;;;;;;5087266;28;20044;-79
2024/03/13 04:52:05;;;;;;;10.77;6.93;;;10.30;90.90;;;;;;5081396;28;20067;-79
2024/03/13 04:54:32;;;;;;;13.07;7.20;;;10.30;91.10;;;;;;5073388;28;20040;-78
2024/03/13 04:57:00;;;;;;;13.77;7.38;;;10.20;90.90;;;;;;5073578;28;20491;-80
2024/03/13 04:59:26;;;;;;;12.20;7.13;;;10.20;90.90;;;;;;5073286;28;20047;-79
2024/03/13 05:01:52;;;;;;;12.52;6.97;;;10.20;90.80;;;;;;5082138;28;20039;-80
2024/03/13 05:04:18;;;;;;;13.32;7.03;;;10.10;90.80;;;;;;5093623;28;20483;-80
2024/03/13 05:06:44;;;;;;;12.63;7.03;;;10.10;90.80;;;;;;5093427;28;20036;-78
2024/03/13 05:09:10;;;;;;;10.10;6.32;;;10.20;90.90;;;;;;5093253;28;20035;-82
2024/03/13 05:11:36;;;;;;;10.43;6.68;;;10.20;90.80;;;;;;5093067;28;20032;-79
2024/03/13 05:14:02;;;;;;;9.43;6.03;;;10.20;90.70;;;;;;5093381;28;20035;-78
2024/03/13 05:16:28;;;;;;;9.43;6.25;;;10.20;90.80;;;;;;5094102;28;20044;-79
2024/03/13 05:18:53;;;;;;;12.90;7.22;;;10.20;90.70;;;;;;5094588;28;20568;-80
2024/03/13 05:21:19;;;;;;;11.70;6.32;;;10.20;90.50;;;;;;5093848;28;20111;-79
2024/03/13 05:23:45;;;;;;;9.68;6.93;;;10.10;90.70;;;;;;5093339;28;20085;-80
2024/03/13 05:26:11;;;;;;;10.00;6.18;;;10.20;90.80;;;;;;5093558;28;20044;-80
2024/03/13 05:28:37;;;;;;;10.73;6.75;;;10.20;90.70;;;;;;5093562;28;20445;-79
2024/03/13 05:31:02;;;;;;;10.15;7.07;;;10.20;90.70;;;;;;5093004;28;20453;-80
2024/03/13 05:33:28;;;;;;;12.38;7.13;;;10.20;90.70;;;;;;5093699;28;20024;-80
2024/03/13 05:35:54;;;;;;;11.07;6.65;;;10.20;90.50;;;;;;5096131;28;20040;-78
2024/03/13 05:38:19;;;;;;;13.38;6.45;;;10.20;90.60;;;;;;5101436;28;20028;-79
2024/03/13 05:40:45;;;;;;;9.55;6.13;;;10.20;90.50;;;;;;5094913;28;20036;-79
2024/03/13 05:43:11;;;;;;;10.65;6.55;;;10.20;90.40;;;;;;5092851;28;20034;-78
2024/03/13 05:45:37;;;;;;;12.73;6.88;;;10.20;90.30;;;;;;5092933;28;20051;-78
2024/03/13 05:48:02;;;;;;;14.10;6.45;;;10.20;90.30;;;;;;5093175;28;20058;-80
2024/03/13 05:50:28;;;;;;;11.77;6.97;;;10.20;90.40;;;;;;5093860;28;20024;-81
2024/03/13 05:52:54;;;;;;;12.48;7.60;;;10.20;90.30;;;;;;5094068;28;20040;-79
2024/03/13 05:55:19;;;;;;;13.52;7.93;;;10.30;90.40;;;;;;5074703;28;20036;-79
2024/03/13 05:57:45;;;;;;;12.60;7.97;;;10.20;90.20;;;;;;5092798;28;20384;-80
2024/03/13 06:00:17;;;;;;;10.70;7.60;;;10.20;90.20;;;;;;5092813;28;20062;-81
2024/03/13 06:02:43;;;;;;;12.20;8.10;;;10.30;90.20;;;;;;5093003;28;20104;-78
2024/03/13 06:05:11;;;;;;;9.90;7.43;;;10.30;90.10;;;;;;5094173;28;20063;-79
2024/03/13 06:07:38;;;;;;;11.75;7.90;;;10.30;90.10;;;;;;5075477;28;20491;-78
2024/03/13 06:10:10;;;;;;;11.20;6.68;;;10.40;90.00;;;;;;5092659;28;20032;-80
2024/03/13 06:12:36;;;;;;;9.70;6.30;;;10.40;90.10;;;;;;5071248;28;20476;-79
2024/03/13 06:15:06;;;;;;;9.80;7.05;;;10.50;90.10;;;;;;5070578;28;20051;-80
2024/03/13 06:17:35;;;;;;;10.52;6.50;;;10.50;90.00;;;;;;5092508;28;20048;-80
2024/03/13 06:20:07;;;;;;;9.85;6.07;;;10.70;89.60;;;;;;5074136;28;20396;-81
2024/03/13 06:22:35;;;;;;;9.20;6.20;;;10.70;89.40;;;;;;5092810;28;20048;-80
2024/03/13 06:25:06;;;;;;;12.68;6.10;;;11.00;89.50;;;;;;5092839;28;20020;-78
2024/03/13 06:27:33;;;;;;;8.50;5.63;;;12.00;88.50;;;;;;5078355;28;20040;-80
2024/03/13 06:30:00;;;;;;;9.02;5.82;;;13.00;85.60;;;;;;5092434;28;20032;-80
2024/03/13 06:32:28;;;;;;;10.57;6.18;;;14.10;81.70;;;;;;5092145;28;20036;-79
2024/03/13 06:35:02;;;;;;;9.48;5.50;;;14.80;78.90;;;;;;5091952;28;20513;-80
2024/03/13 06:37:28;;;;;;;8.57;5.20;;;15.50;77.00;;;;;;5092326;28;20044;-75
2024/03/13 06:39:54;;;;;;;10.05;5.22;;;16.10;75.40;;;;;;5091798;28;20434;-80
2024/03/13 06:42:20;;;;;;;9.25;5.57;;;16.50;75.00;;;;;;5073779;28;20039;-79
2024/03/13 06:44:47;;;;;;;7.70;5.00;;;16.60;73.90;;;;;;5092567;28;20037;-80
2024/03/13 06:47:12;;;;;;;7.15;4.72;;;16.50;73.60;;;;;;5092306;28;20044;-77
2024/03/13 06:49:39;;;;;;;10.07;4.78;;;16.40;73.40;;;;;;5092167;28;20036;-79
2024/03/13 06:52:06;;;;;;;9.75;5.20;;;16.00;73.50;;;;;;5091605;28;20036;-79
2024/03/13 06:54:32;;;;;;;11.27;6.03;;;15.90;73.50;;;;;;5091819;28;20059;-79
2024/03/13 06:56:57;;;;;;;10.20;6.30;;;16.00;73.10;;;;;;5091568;28;20098;-76
2024/03/13 06:59:23;;;;;;;12.10;5.50;;;16.10;72.70;;;;;;5091564;28;20024;-80
2024/03/13 07:01:51;;;;;;;9.52;5.53;;;16.40;72.10;;;;;;5091911;28;20055;-79
2024/03/13 07:04:18;;;;;;;13.27;7.68;;;16.90;71.10;;;;;;5091850;28;20181;-76
2024/03/13 07:06:46;;;;;;;14.32;5.85;;;17.40;70.00;;;;;;5091610;28;20531;-79
2024/03/13 07:09:12;;;;;;;9.45;5.97;;;17.60;69.30;;;;;;5091757;28;20439;-77
2024/03/13 07:11:37;;;;;;;9.63;5.97;;;17.80;68.60;;;;;;5091757;28;20103;-74
2024/03/13 07:14:04;;;;;;;11.00;5.80;;;17.60;68.30;;;;;;5091627;28;20033;-73
2024/03/13 07:16:30;;;;;;;10.50;5.68;;;17.60;68.50;;;;;;5091729;28;20055;-75
2024/03/13 07:18:59;;;;;;;11.70;5.38;;;17.70;68.00;;;;;;5091722;28;20028;-75
2024/03/13 07:21:25;;;;;;;9.25;5.18;;;17.70;67.50;;;;;;5093292;28;20509;-76
2024/03/13 07:23:50;;;;;;;9.00;5.28;;;17.70;66.90;;;;;;5095224;28;20111;-74
2024/03/13 07:26:16;;;;;;;13.63;6.30;;;17.70;66.60;;;;;;5095388;28;20120;-74
2024/03/13 07:28:42;;;;;;;8.50;5.55;;;17.50;66.90;;;;;;5095560;28;20086;-75
2024/03/13 07:31:07;;;;;;;12.55;5.38;;;17.20;67.40;;;;;;5095166;28;20139;-75
2024/03/13 07:33:34;;;;;;;9.02;5.53;;;16.90;68.20;;;;;;5094891;28;20483;-76
2024/03/13 07:35:59;;;;;;;13.35;6.40;;;16.60;68.70;;;;;;5095102;28;20060;-75
2024/03/13 07:38:25;;;;;;;9.13;5.55;;;16.40;68.60;;;;;;5095409;28;20060;-76
2024/03/13 07:40:52;;;;;;;9.20;5.32;;;16.10;68.90;;;;;;5095121;28;20032;-76
2024/03/13 07:43:17;;;;;;;10.38;5.78;;;15.90;69.80;;;;;;5077020;28;20028;-76
2024/03/13 07:45:43;;;;;;;9.50;6.00;;;15.50;70.10;;;;;;5094784;28;20040;-76
2024/03/13 07:48:09;;;;;;;9.27;6.20;;;15.50;71.20;;;;;;5094438;28;20028;-74
2024/03/13 07:50:41;;;;;;;11.90;6.57;;;15.30;71.30;;;;;;5094756;28;20117;-74
2024/03/13 07:53:08;;;;;;;12.48;6.50;;;15.30;71.40;;;;;;5094591;28;20533;-75
2024/03/13 07:55:34;;;;;;;11.20;7.20;;;15.30;71.70;;;;;;5094724;28;20032;-75
2024/03/13 07:58:00;;;;;;;9.70;7.10;;;15.20;71.70;;;;;;5094768;28;20047;-75
2024/03/13 08:00:29;;;;;;;12.35;7.60;;;15.00;71.60;;;;;;5094653;28;20040;-74
2024/03/13 08:02:56;;;;;;;12.00;7.22;;;15.00;72.10;;;;;;5076381;28;20036;-74
2024/03/13 08:05:22;;;;;;;11.23;6.78;;;15.00;72.10;;;;;;5076290;28;20040;-73
2024/03/13 08:07:48;;;;;;;9.95;6.20;;;14.90;72.00;;;;;;5094362;28;20082;-73
2024/03/13 08:10:18;;;;;;;13.73;6.60;;;14.80;72.30;;;;;;5094504;28;20044;-70
2024/03/13 08:12:44;;;;;;;8.93;7.05;;;14.80;72.70;;;;;;5094213;28;20038;-70
2024/03/13 08:15:11;;;;;;;9.05;6.10;;;15.00;73.00;;;;;;5094295;28;20082;-71
2024/03/13 08:17:37;;;;;;;16.23;6.78;;;15.00;72.60;;;;;;5094034;28;20052;-71
2024/03/13 08:20:07;;;;;;;10.80;6.75;;;15.00;72.50;;;;;;5094175;28;20137;-73
2024/03/13 08:22:32;;;;;;;10.20;6.53;;;15.10;72.90;;;;;;5095058;28;20445;-76
2024/03/13 08:24:58;;;;;;;15.13;7.15;;;15.10;72.40;;;;;;5094352;28;20036;-69
2024/03/13 08:27:24;;;;;;;10.25;6.47;;;15.10;72.80;;;;;;5094177;28;20044;-70
2024/03/13 08:29:50;;;;;;;15.93;6.40;;;15.10;72.50;;;;;;5094064;28;20038;-70
2024/03/13 08:32:15;;;;;;;10.13;6.63;;;15.30;72.60;;;;;;5093181;28;20123;-72
2024/03/13 08:34:43;;;;;;;10.65;6.03;;;15.30;72.40;;;;;;5093764;28;20107;-69
2024/03/13 08:37:10;;;;;;;12.23;6.30;;;15.40;72.40;;;;;;5093731;28;20064;-69
2024/03/13 08:39:36;;;;;;;17.38;7.25;;;15.40;72.10;;;;;;5093814;28;20435;-72
2024/03/13 08:42:02;;;;;;;11.40;5.85;;;15.40;72.10;;;;;;5093819;28;20499;-72
2024/03/13 08:44:29;;;;;;;14.48;6.18;;;15.30;72.10;;;;;;5093965;28;20079;-73
2024/03/13 08:46:55;;;;;;;10.63;6.55;;;15.30;72.20;;;;;;5093726;28;20052;-71
2024/03/13 08:49:21;;;;;;;13.68;6.75;;;15.20;72.20;;;;;;5094049;28;20043;-72
2024/03/13 08:51:47;;;;;;;11.45;6.70;;;15.30;72.70;;;;;;5093833;28;20028;-70
2024/03/13 08:54:13;;;;;;;10.15;6.30;;;15.30;72.70;;;;;;5093377;28;20025;-73
2024/03/13 08:56:39;;;;;;;12.57;7.03;;;15.30;72.70;;;;;;5093744;28;20107;-72
2024/03/13 08:59:05;;;;;;;14.27;7.18;;;15.30;72.80;;;;;;5093813;28;20032;-72
2024/03/13 09:01:51;;;;;;;13.70;7.00;;;15.40;72.90;;;;;;5093328;28;20040;-71
2024/03/13 09:04:17;;;;;;;12.57;6.05;;;15.50;72.90;;;;;;5092949;28;20122;-70
2024/03/13 09:06:43;;;;;;;9.00;6.03;;;15.50;72.80;;;;;;5093120;28;20036;-70
2024/03/13 09:09:09;;;;;;;11.10;6.03;;;15.40;72.40;;;;;;5093152;28;20036;-71
2024/03/13 09:11:34;;;;;;;9.45;5.63;;;15.40;72.60;;;;;;5093930;28;20040;-72
2024/03/13 09:14:03;;;;;;;9.43;5.07;;;15.40;72.50;;;;;;5093911;28;20028;-73
2024/03/13 09:16:32;;;;;;;10.60;5.93;;;15.40;72.20;;;;;;5093158;28;20450;-70
2024/03/13 09:18:58;;;;;;;7.95;5.22;;;15.40;72.40;;;;;;5075339;28;20040;-70
2024/03/13 09:21:24;;;;;;;9.02;5.55;;;15.50;72.30;;;;;;5093666;28;20088;-71
2024/03/13 09:23:53;;;;;;;9.88;5.22;;;15.70;72.20;;;;;;5092950;28;20032;-71
2024/03/13 09:26:19;;;;;;;9.02;4.60;;;15.90;71.80;;;;;;5092929;28;20427;-71
2024/03/13 09:28:46;;;;;;;8.75;5.03;;;16.00;71.40;;;;;;5093013;28;20161;-72
2024/03/13 09:31:12;;;;;;;17.17;12.85;;;16.00;71.00;;;;;;5092752;28;20039;-71
2024/03/13 09:33:37;;;;;;;18.98;13.98;;;16.00;70.30;;;;;;5074392;28;20450;-70
2024/03/13 09:36:07;;;;;;;24.92;17.88;;;16.10;70.00;;;;;;5074514;28;20036;-71
2024/03/13 09:38:33;;;;;;;19.40;13.68;;;16.10;70.10;;;;;;5092908;28;20024;-72
2024/03/13 09:41:05;;;;;;;16.83;10.20;;;16.10;69.90;;;;;;5092830;28;20486;-70
2024/03/13 09:43:31;;;;;;;16.33;8.18;;;16.10;69.70;;;;;;5091540;28;20517;-71
2024/03/13 09:45:58;;;;;;;14.48;8.38;;;16.20;69.50;;;;;;5092433;28;20070;-72
2024/03/13 09:48:25;;;;;;;10.57;5.10;;;16.20;69.20;;;;;;5092566;28;20043;-72
2024/03/13 09:50:51;;;;;;;10.10;5.88;;;16.30;69.50;;;;;;5092922;28;20028;-71
2024/03/13 09:53:18;;;;;;;14.18;6.18;;;16.30;69.00;;;;;;5074896;28;20081;-71
2024/03/13 09:55:45;;;;;;;8.75;5.07;;;16.30;68.60;;;;;;5075049;28;20483;-72
2024/03/13 09:58:11;;;;;;;10.65;5.70;;;16.30;68.90;;;;;;5092677;28;20044;-72
2024/03/13 10:00:38;;;;;;;11.73;6.90;;;16.40;68.20;;;;;;5092631;28;20039;-71
2024/03/13 10:03:17;;;;;;;8.50;5.28;;;16.40;68.60;;;;;;5092530;28;20487;-72
2024/03/13 10:05:44;;;;;;;10.52;4.95;;;16.40;68.10;;;;;;5092414;28;20049;-70
2024/03/13 10:08:11;;;;;;;9.68;4.50;;;16.50;68.10;;;;;;5073901;28;20613;-71
2024/03/13 10:10:38;;;;;;;8.77;4.35;;;16.70;67.90;;;;;;5092120;28;20344;-70
2024/03/13 10:13:07;;;;;;;7.68;4.15;;;16.80;67.30;;;;;;5092185;28;20032;-71
2024/03/13 10:15:33;;;;;;;8.88;3.92;;;16.90;67.30;;;;;;5092337;28;20032;-71
2024/03/13 10:18:13;;;;;;;9.05;3.72;;;17.10;67.20;;;;;;5091886;28;20043;-72
2024/03/13 10:20:56;;;;;;;7.57;4.15;;;17.30;67.00;;;;;;5092141;28;20032;-70
2024/03/13 10:23:22;;;;;;;9.38;4.10;;;17.40;66.60;;;;;;5092696;28;20032;-74
2024/03/13 10:25:56;;;;;;;8.65;3.75;;;17.40;66.40;;;;;;5092295;28;20032;-73
2024/03/13 10:28:23;;;;;;;6.47;3.08;;;17.40;66.40;;;;;;5092359;28;20044;-69
2024/03/13 10:30:59;;;;;;;7.68;2.63;;;17.40;66.20;;;;;;5090862;28;20074;-69
2024/03/13 10:33:25;;;;;;;7.22;2.78;;;17.40;65.90;;;;;;5091939;28;20060;-69
2024/03/13 10:35:51;;;;;;;6.15;2.80;;;17.40;65.60;;;;;;5092042;28;20056;-68
2024/03/13 10:38:17;;;;;;;4.88;2.53;;;17.40;65.90;;;;;;5091707;28;20151;-69
2024/03/13 10:40:43;;;;;;;5.32;2.67;;;17.40;65.40;;;;;;5091898;28;20484;-69
2024/03/13 10:43:09;;;;;;;8.68;2.92;;;17.50;66.10;;;;;;5073811;28;20480;-69
2024/03/13 10:45:36;;;;;;;10.07;2.58;;;17.50;65.00;;;;;;5091633;28;20042;-69
2024/03/13 10:48:03;;;;;;;7.53;2.67;;;17.60;64.60;;;;;;5092257;28;20369;-69
2024/03/13 10:50:30;;;;;;;5.60;2.90;;;17.60;65.00;;;;;;5092206;28;20028;-69
2024/03/13 10:52:56;;;;;;;5.90;2.85;;;17.70;64.60;;;;;;5091908;28;20044;-68
2024/03/13 10:55:26;;;;;;;7.43;3.72;;;17.60;64.60;;;;;;5093895;28;20138;-69
2024/03/13 10:57:52;;;;;;;7.75;3.47;;;17.70;64.70;;;;;;5095913;28;20073;-69
2024/03/13 11:00:21;;;;;;;8.07;3.33;;;17.70;64.40;;;;;;5077518;28;20060;-69
2024/03/13 11:02:49;;;;;;;5.93;3.47;;;17.60;64.10;;;;;;5095669;28;20036;-69
2024/03/13 11:05:15;;;;;;;12.95;7.35;;;17.60;64.30;;;;;;5095696;28;20033;-71
2024/03/13 11:07:41;;;;;;;11.63;3.80;;;17.70;64.40;;;;;;5095593;28;20385;-69
2024/03/13 11:10:21;;;;;;;7.43;3.50;;;17.80;64.00;;;;;;5095476;28;20038;-69
2024/03/13 11:12:49;;;;;;;8.88;3.00;;;18.00;63.90;;;;;;5095105;28;20028;-69
2024/03/13 11:15:23;;;;;;;6.97;2.33;;;18.00;63.70;;;;;;5095620;28;20032;-69
2024/03/13 11:17:56;;;;;;;6.70;2.50;;;18.10;63.40;;;;;;5077915;28;20063;-70
2024/03/13 11:20:26;;;;;;;4.88;2.40;;;18.10;63.00;;;;;;5095400;28;20028;-75
2024/03/13 11:23:22;;;;;;;6.90;2.60;;;18.10;63.00;;;;;;5095988;28;20541;-73
2024/03/13 11:25:49;;;;;;;5.95;2.72;;;18.20;62.90;;;;;;5094506;28;20508;-68
2024/03/13 11:28:27;;;;;;;11.65;2.90;;;18.30;63.20;;;;;;5094993;28;20043;-69
2024/03/13 11:30:54;;;;;;;5.13;2.13;;;18.50;63.60;;;;;;5077013;28;20491;-69
2024/03/13 11:33:22;;;;;;;3.92;2.00;;;18.60;62.90;;;;;;5095257;28;20041;-68
2024/03/13 11:35:48;;;;;;;5.43;2.67;;;18.70;62.10;;;;;;5095139;28;20055;-69
2024/03/13 11:38:15;;;;;;;5.38;1.92;;;18.80;62.40;;;;;;5095163;28;20141;-70
2024/03/13 11:40:41;;;;;;;4.53;1.80;;;18.80;61.70;;;;;;5094798;28;20025;-69
2024/03/13 11:43:09;;;;;;;6.15;1.80;;;18.80;60.50;;;;;;5094740;28;20438;-69
2024/03/13 11:45:44;;;;;;;6.05;1.58;;;18.80;58.90;;;;;;5094638;28;20119;-70
2024/03/13 11:48:20;;;;;;;3.67;1.65;;;18.80;56.50;;;;;;5094830;28;20355;-70
2024/03/13 11:51:10;;;;;;;4.32;1.58;;;18.80;56.40;;;;;;5095682;28;20043;-69
2024/03/13 11:53:42;;;;;;;6.95;2.08;;;18.80;56.30;;;;;;5087318;28;20119;-69
2024/03/13 11:56:13;;;;;;;4.90;1.77;;;18.90;55.80;;;;;;5094403;28;20033;-68
2024/03/13 11:58:40;;;;;;;6.95;1.90;;;18.90;56.10;;;;;;5094397;28;20036;-69
2024/03/13 12:01:12;;;;;;;3.58;1.58;;;18.80;54.60;;;;;;5092628;28;20120;-69
2024/03/13 12:03:45;;;;;;;5.18;2.05;;;18.90;55.30;;;;;;5098036;28;20031;-68
2024/03/13 12:06:20;;;;;;;4.45;2.20;;;18.90;55.30;;;;;;5113568;28;20115;-68
2024/03/13 12:08:47;;;;;;;5.18;2.30;;;19.10;56.20;;;;;;5114771;28;20441;-68
2024/03/13 12:11:17;;;;;;;4.68;2.30;;;19.20;56.30;;;;;;5110770;28;20020;-69
2024/03/13 12:13:44;;;;;;;6.65;2.72;;;19.40;56.50;;;;;;5093827;28;20039;-69
2024/03/13 12:16:13;;;;;;;9.63;2.90;;;19.50;57.10;;;;;;5093793;28;20122;-70
2024/03/13 12:18:45;;;;;;;6.88;2.17;;;19.60;57.00;;;;;;5093555;28;20440;-69
2024/03/13 12:21:11;;;;;;;3.70;1.80;;;19.70;56.90;;;;;;5093428;28;20036;-69
2024/03/13 12:23:37;;;;;;;7.60;1.95;;;19.80;56.50;;;;;;5093560;28;20515;-69
2024/03/13 12:26:04;;;;;;;5.13;1.95;;;19.90;56.50;;;;;;5093784;28;20032;-69
2024/03/13 12:28:30;;;;;;;2.95;1.67;;;19.90;55.80;;;;;;5093251;28;20036;-69
2024/03/13 12:30:56;;;;;;;3.60;1.80;;;19.90;55.20;;;;;;5093713;28;20376;-69
2024/03/13 12:33:21;;;;;;;3.03;1.60;;;19.80;55.00;;;;;;5094089;28;20391;-70
2024/03/13 12:35:57;;;;;;;4.72;1.52;;;19.80;54.50;;;;;;5094713;28;20031;-69
2024/03/13 12:38:39;;;;;;;3.47;1.75;;;19.90;53.30;;;;;;5093709;28;20032;-66
2024/03/13 12:41:08;;;;;;;5.72;1.90;;;19.80;52.90;;;;;;5093137;28;20515;-67
2024/03/13 12:43:34;;;;;;;4.18;1.75;;;19.90;52.90;;;;;;5093720;28;20523;-70
2024/03/13 12:46:04;;;;;;;5.35;1.83;;;19.90;52.20;;;;;;5093866;28;20039;-69
2024/03/13 12:48:33;;;;;;;3.65;1.60;;;19.80;52.20;;;;;;5093166;28;20546;-69
2024/03/13 12:51:00;;;;;;;3.20;1.55;;;19.90;52.80;;;;;;5104467;28;20032;-69
2024/03/13 12:53:29;;;;;;;4.65;2.08;;;19.80;52.70;;;;;;5093510;28;20520;-69
2024/03/13 12:55:55;;;;;;;3.90;1.50;;;19.70;52.40;;;;;;5093745;28;20027;-70
2024/03/13 12:58:22;;;;;;;3.67;1.75;;;19.70;52.50;;;;;;5075250;28;20111;-70
2024/03/13 13:00:48;;;;;;;3.17;1.60;;;19.80;52.40;;;;;;5093490;28;20039;-69
2024/03/13 13:03:15;;;;;;;3.92;1.80;;;19.90;53.00;;;;;;5092911;28;20036;-69
2024/03/13 13:05:41;;;;;;;4.75;1.90;;;20.10;53.60;;;;;;5093230;28;20034;-69
2024/03/13 13:08:09;;;;;;;4.70;2.40;;;20.10;53.50;;;;;;5093138;28;20119;-68
2024/03/13 13:10:37;;;;;;;4.35;2.10;;;20.10;54.30;;;;;;5092297;28;20024;-71
2024/03/13 13:13:03;;;;;;;5.82;2.00;;;20.20;55.30;;;;;;5093156;28;20058;-69
2024/03/13 13:15:29;;;;;;;4.28;2.00;;;20.10;55.90;;;;;;5092952;28;20036;-70
2024/03/13 13:17:55;;;;;;;5.93;2.05;;;20.20;56.50;;;;;;5092656;28;20079;-71
2024/03/13 13:20:24;;;;;;;9.30;1.85;;;20.30;56.70;;;;;;5103686;28;20491;-70
2024/03/13 13:22:51;;;;;;;4.63;1.80;;;20.30;56.80;;;;;;5112872;28;20115;-69
2024/03/13 13:25:19;;;;;;;3.47;1.70;;;20.40;56.60;;;;;;5093640;28;20081;-71
2024/03/13 13:27:49;;;;;;;6.15;1.83;;;20.40;56.60;;;;;;5091776;28;20411;-70
2024/03/13 13:30:15;;;;;;;5.95;1.92;;;20.40;57.20;;;;;;5091542;28;20039;-69
2024/03/13 13:32:44;;;;;;;5.35;1.60;;;20.40;56.50;;;;;;5092576;28;20159;-69
2024/03/13 13:35:11;;;;;;;6.25;1.80;;;20.50;56.50;;;;;;5092253;28;20472;-71
2024/03/13 13:37:46;;;;;;;4.85;1.70;;;20.60;56.40;;;;;;5092452;28;20490;-70
2024/03/13 13:40:15;;;;;;;5.93;1.73;;;20.70;56.10;;;;;;5092354;28;20093;-66
2024/03/13 13:42:46;;;;;;;6.82;1.70;;;20.70;56.20;;;;;;5091946;28;20024;-69
2024/03/13 13:45:13;;;;;;;3.33;1.40;;;20.70;55.90;;;;;;5091813;28;20115;-70
2024/03/13 13:47:39;;;;;;;7.05;2.80;;;20.70;55.70;;;;;;5092399;28;20044;-70
2024/03/13 13:50:10;;;;;;;8.52;3.00;;;20.60;55.60;;;;;;5074093;28;20048;-71
2024/03/13 13:52:37;;;;;;;2.55;1.55;;;20.70;55.80;;;;;;5091767;28;20063;-69
2024/03/13 13:55:05;;;;;;;4.53;1.60;;;20.70;55.70;;;;;;5092184;28;20032;-69
2024/03/13 13:57:31;;;;;;;3.83;1.60;;;20.80;55.60;;;;;;5092691;28;20071;-71
2024/03/13 13:59:57;;;;;;;5.78;1.42;;;20.80;55.30;;;;;;5090465;28;20392;-71
2024/03/13 14:02:23;;;;;;;4.88;1.80;;;20.70;55.00;;;;;;5102759;28;20028;-70
2024/03/13 14:04:49;;;;;;;3.53;1.60;;;20.70;54.90;;;;;;5091626;28;20024;-70
2024/03/13 14:07:15;;;;;;;4.13;1.50;;;20.70;54.80;;;;;;5091404;28;20043;-69
2024/03/13 14:09:40;;;;;;;7.50;1.80;;;20.80;55.10;;;;;;5091586;28;20024;-70
2024/03/13 14:12:12;;;;;;;5.43;1.55;;;20.90;55.00;;;;;;5091275;28;20177;-70
2024/03/13 14:14:39;;;;;;;5.40;1.65;;;20.80;54.90;;;;;;5091594;28;20063;-69
2024/03/13 14:17:10;;;;;;;5.57;1.67;;;20.80;55.00;;;;;;5091791;28;20052;-69
2024/03/13 14:19:37;;;;;;;4.10;1.50;;;20.80;55.30;;;;;;5091915;28;20044;-70
2024/03/13 14:22:04;;;;;;;4.03;1.65;;;20.70;55.10;;;;;;5090177;28;20424;-70
2024/03/13 14:24:30;;;;;;;3.92;1.33;;;20.50;55.30;;;;;;5070035;28;20104;-69
2024/03/13 14:26:56;;;;;;;6.28;2.05;;;20.40;55.40;;;;;;5078741;28;20055;-70
2024/03/13 14:29:25;;;;;;;5.38;1.50;;;20.30;55.50;;;;;;5107466;28;20035;-71
2024/03/13 14:31:51;;;;;;;4.70;1.80;;;20.10;55.70;;;;;;5085102;28;20036;-69
2024/03/13 14:34:17;;;;;;;5.43;1.65;;;20.10;56.20;;;;;;5094672;28;20468;-68
2024/03/13 14:36:43;;;;;;;5.80;1.60;;;20.00;56.30;;;;;;5095357;28;20503;-70
2024/03/13 14:39:14;;;;;;;5.47;2.40;;;19.80;56.60;;;;;;5108174;28;20042;-71
2024/03/13 14:41:44;;;;;;;6.03;2.15;;;19.80;56.90;;;;;;5115901;28;20032;-70
2024/03/13 14:44:11;;;;;;;3.75;1.88;;;19.80;57.40;;;;;;5115789;28;20057;-71
2024/03/13 14:46:40;;;;;;;3.85;1.88;;;19.60;57.80;;;;;;5115962;28;20048;-70
2024/03/13 14:49:08;;;;;;;6.07;2.42;;;19.60;58.20;;;;;;5115972;28;20030;-70
2024/03/13 14:51:34;;;;;;;4.25;1.90;;;19.60;57.80;;;;;;5113687;28;20108;-69
2024/03/13 14:54:00;;;;;;;5.82;1.65;;;19.70;57.60;;;;;;5115779;28;20032;-68
2024/03/13 14:56:25;;;;;;;3.70;1.63;;;19.70;57.20;;;;;;5115693;28;20059;-70
2024/03/13 14:58:51;;;;;;;5.32;1.98;;;19.60;56.90;;;;;;5115749;28;20023;-70
2024/03/13 15:01:17;;;;;;;5.60;1.65;;;19.50;56.90;;;;;;5115906;28;20091;-70
2024/03/13 15:03:53;;;;;;;3.33;1.73;;;19.30;56.70;;;;;;5115931;28;20020;-70
2024/03/13 15:06:19;;;;;;;5.53;1.70;;;19.20;56.90;;;;;;5101073;28;20395;-68
2024/03/13 15:08:46;;;;;;;3.47;1.35;;;19.10;56.80;;;;;;5088789;28;20036;-70
2024/03/13 15:11:12;;;;;;;4.03;1.50;;;19.00;57.00;;;;;;5096027;28;20036;-70
2024/03/13 15:13:45;;;;;;;2.47;1.25;;;18.90;57.10;;;;;;5095434;28;20038;-71
2024/03/13 15:16:11;;;;;;;2.58;1.10;;;18.70;57.00;;;;;;5095388;28;20496;-70
2024/03/13 15:18:37;;;;;;;2.92;1.13;;;18.70;57.30;;;;;;5095325;28;20089;-70
2024/03/13 15:21:04;;;;;;;4.63;1.50;;;18.60;56.40;;;;;;5095577;28;20432;-69
2024/03/13 15:23:30;;;;;;;3.83;1.70;;;18.60;56.50;;;;;;5095579;28;20040;-69
2024/03/13 15:25:57;;;;;;;3.10;1.08;;;18.60;55.70;;;;;;5095223;28;20075;-70
2024/03/13 15:28:22;;;;;;;3.42;1.23;;;18.60;54.40;;;;;;5095282;28;20040;-71
2024/03/13 15:30:48;;;;;;;3.13;1.00;;;18.50;54.40;;;;;;5095443;28;20024;-70
2024/03/13 15:33:14;;;;;;;4.13;1.45;;;18.40;54.50;;;;;;5095192;28;20040;-71
2024/03/13 15:35:41;;;;;;;4.80;1.30;;;18.40;55.10;;;;;;5095682;28;20054;-71
2024/03/13 15:38:07;;;;;;;3.25;1.20;;;18.30;55.80;;;;;;5095105;28;20040;-70
2024/03/13 15:40:33;;;;;;;3.25;1.40;;;18.30;56.80;;;;;;5095384;28;20054;-72
2024/03/13 15:43:02;;;;;;;4.35;1.40;;;18.20;57.50;;;;;;5094615;28;20435;-70
2024/03/13 15:45:28;;;;;;;6.15;2.08;;;18.20;58.10;;;;;;5094955;28;20530;-70
2024/03/13 15:47:57;;;;;;;4.93;1.52;;;18.10;58.80;;;;;;5096375;28;20507;-72
2024/03/13 15:50:23;;;;;;;5.80;1.70;;;18.10;59.10;;;;;;5112928;28;20047;-73
2024/03/13 15:52:48;;;;;;;8.13;4.82;;;18.00;59.50;;;;;;5115235;28;20112;-71
2024/03/13 15:55:15;;;;;;;5.22;1.92;;;17.90;60.20;;;;;;5095395;28;20024;-72
2024/03/13 15:57:42;;;;;;;3.45;1.40;;;17.70;60.70;;;;;;5088514;28;20103;-71
2024/03/13 16:00:18;;;;;;;7.05;1.60;;;17.60;61.30;;;;;;5083008;28;20074;-71
2024/03/13 16:02:48;;;;;;;4.82;1.70;;;17.50;61.80;;;;;;5073881;28;20097;-71
2024/03/13 16:05:22;;;;;;;3.70;1.80;;;17.50;62.30;;;;;;5090612;28;20377;-70
2024/03/13 16:08:05;;;;;;;2.83;1.25;;;17.50;62.80;;;;;;5092202;28;20042;-71
2024/03/13 16:10:30;;;;;;;8.20;4.13;;;17.40;63.00;;;;;;5084464;28;20514;-68
2024/03/13 16:12:57;;;;;;;10.30;1.75;;;17.40;63.40;;;;;;5094151;28;20032;-70
2024/03/13 16:15:22;;;;;;;5.15;1.60;;;17.30;63.80;;;;;;5093888;28;20024;-70
2024/03/13 16:17:48;;;;;;;4.03;1.50;;;17.30;64.10;;;;;;5093364;28;20487;-69
2024/03/13 16:20:14;;;;;;;7.22;2.60;;;17.30;64.40;;;;;;5093522;28;20032;-69
2024/03/13 16:22:41;;;;;;;9.50;1.77;;;17.30;64.90;;;;;;5093941;28;20056;-71
2024/03/13 16:25:08;;;;;;;2.95;1.23;;;17.30;65.10;;;;;;5093616;28;20024;-71
2024/03/13 16:27:33;;;;;;;4.53;1.48;;;17.30;65.50;;;;;;5087381;28;20052;-70
2024/03/13 16:30:05;;;;;;;6.00;2.03;;;17.20;66.00;;;;;;5093883;28;20169;-70
2024/03/13 16:32:31;;;;;;;9.07;1.95;;;17.20;66.10;;;;;;5093914;28;20346;-69
2024/03/13 16:34:56;;;;;;;4.68;1.77;;;17.20;66.30;;;;;;5093908;28;20166;-69
2024/03/13 16:37:24;;;;;;;8.25;1.60;;;17.20;66.90;;;;;;5093517;28;20361;-70
2024/03/13 16:39:51;;;;;;;3.88;1.50;;;17.20;67.00;;;;;;5093544;28;20032;-69
2024/03/13 16:42:17;;;;;;;5.35;1.58;;;17.20;67.30;;;;;;5093842;28;20024;-70
2024/03/13 16:44:44;;;;;;;3.72;1.60;;;17.10;67.30;;;;;;5093693;28;20051;-69
2024/03/13 16:47:10;;;;;;;7.00;1.55;;;17.10;67.90;;;;;;5093370;28;20123;-69
2024/03/13 16:49:35;;;;;;;6.00;1.60;;;17.10;68.40;;;;;;5092891;28;20173;-70
2024/03/13 16:52:01;;;;;;;3.90;1.98;;;17.10;68.80;;;;;;5092948;28;20506;-70
2024/03/13 16:54:27;;;;;;;7.55;3.25;;;17.00;68.80;;;;;;5092621;28;20036;-68
2024/03/13 16:56:54;;;;;;;6.85;3.20;;;17.00;68.90;;;;;;5092794;28;20034;-69
2024/03/13 16:59:21;;;;;;;7.10;3.58;;;17.00;69.50;;;;;;5074464;28;20040;-70
2024/03/13 17:01:50;;;;;;;8.75;4.35;;;17.00;69.70;;;;;;5092813;28;20450;-69